Time;durP1;ratioP1;P1;durP2;ratioP2;P2;SDS_P1;SDS_P2;PMS_P1;PMS_P2;Temp;Humidity;BMP_temperature;BMP_pressure;BME280_temperature;BME280_humidity;BME280_pressure;Samples;Min_cycle;Max_cycle;Signal;HPM_P1;HPM_P2
2023/01/03 00:00:18;;;;;;;22.93;12.40;;;;;;;;;;5007828;28;20465;-42
2023/01/03 00:02:43;;;;;;;25.57;12.20;;;;;;;;;;5012420;28;20881;-42
2023/01/03 00:05:09;;;;;;;22.30;10.80;;;;;;;;;;5004381;28;20465;-42
2023/01/03 00:07:35;;;;;;;14.93;9.50;;;;;;;;;;5010426;28;20451;-42
2023/01/03 00:10:09;;;;;;;15.67;10.77;;;;;;;;;;4994832;28;20408;-43
2023/01/03 00:12:35;;;;;;;17.50;10.00;;;;;;;;;;5007460;28;20460;-42
2023/01/03 00:15:01;;;;;;;20.52;9.30;;;;;;;;;;5012072;28;20172;-42
2023/01/03 00:17:27;;;;;;;17.30;9.27;;;;;;;;;;5011978;28;20188;-42
2023/01/03 00:19:53;;;;;;;15.93;9.60;;;;;;;;;;5004111;28;20415;-42
2023/01/03 00:22:19;;;;;;;14.98;9.48;;;;;;;;;;5012146;28;20416;-42
2023/01/03 00:24:46;;;;;;;17.20;8.47;;;;;;;;;;5008800;28;20181;-42
2023/01/03 00:27:12;;;;;;;17.80;8.90;;;;;;;;;;5006900;28;20940;-42
2023/01/03 00:29:39;;;;;;;13.40;8.43;;;;;;;;;;5012104;28;20453;-42
2023/01/03 00:32:05;;;;;;;14.63;8.03;;;;;;;;;;5007349;28;20563;-44
2023/01/03 00:34:31;;;;;;;12.83;7.30;;;;;;;;;;5007428;28;20400;-43
2023/01/03 00:36:57;;;;;;;13.03;7.77;;;;;;;;;;5011672;28;20403;-43
2023/01/03 00:39:24;;;;;;;18.08;7.65;;;;;;;;;;5011717;28;20914;-42
2023/01/03 00:41:50;;;;;;;17.92;8.05;;;;;;;;;;5006397;28;20185;-42
2023/01/03 00:44:16;;;;;;;9.73;7.20;;;;;;;;;;5011760;28;20185;-42
2023/01/03 00:46:42;;;;;;;10.60;6.30;;;;;;;;;;5011429;28;20419;-43
2023/01/03 00:49:09;;;;;;;9.40;7.20;;;;;;;;;;5010274;28;20498;-42
2023/01/03 00:51:36;;;;;;;12.00;6.37;;;;;;;;;;5011594;28;20458;-42
2023/01/03 00:54:03;;;;;;;9.90;6.70;;;;;;;;;;5010360;28;20457;-43
2023/01/03 00:56:31;;;;;;;12.93;6.45;;;;;;;;;;5008133;28;20172;-43
2023/01/03 00:58:57;;;;;;;14.48;7.18;;;;;;;;;;5011826;28;20230;-42
2023/01/03 01:01:28;;;;;;;8.85;6.43;;;;;;;;;;5004073;28;20516;-42
2023/01/03 01:03:58;;;;;;;9.23;5.57;;;;;;;;;;5004962;28;20199;-42
2023/01/03 01:06:25;;;;;;;8.18;6.63;;;;;;;;;;5011304;28;20168;-42
2023/01/03 01:08:53;;;;;;;10.93;6.35;;;;;;;;;;5006749;28;20224;-44
2023/01/03 01:11:19;;;;;;;11.65;6.55;;;;;;;;;;5011386;28;20647;-42
2023/01/03 01:13:45;;;;;;;10.02;5.85;;;;;;;;;;5009619;28;20245;-42
2023/01/03 01:16:13;;;;;;;15.95;7.20;;;;;;;;;;5005630;28;20172;-42
2023/01/03 01:18:39;;;;;;;11.68;6.00;;;;;;;;;;5010101;28;20204;-43
2023/01/03 01:21:06;;;;;;;8.90;5.72;;;;;;;;;;5011297;28;20226;-42
2023/01/03 01:23:34;;;;;;;10.93;6.30;;;;;;;;;;5007074;28;20180;-41
2023/01/03 01:26:00;;;;;;;13.82;6.32;;;;;;;;;;5011065;28;20172;-42
2023/01/03 01:28:26;;;;;;;11.05;6.50;;;;;;;;;;5011497;28;20254;-42
2023/01/03 01:30:52;;;;;;;11.30;6.90;;;;;;;;;;5011172;28;20177;-42
2023/01/03 01:33:18;;;;;;;8.90;6.10;;;;;;;;;;5009809;28;20188;-42
2023/01/03 01:35:44;;;;;;;11.90;6.43;;;;;;;;;;5009757;28;20498;-42
2023/01/03 01:38:10;;;;;;;12.00;6.73;;;;;;;;;;5011156;28;20438;-42
2023/01/03 01:40:36;;;;;;;7.73;6.00;;;;;;;;;;5005125;28;20415;-42
2023/01/03 01:45:56;;;;;;;8.20;6.93;;;;;;;;;;5011292;28;20451;-42
2023/01/03 01:48:22;;;;;;;10.30;7.00;;;;;;;;;;5008246;28;20784;-42
2023/01/03 01:50:50;;;;;;;9.65;6.80;;;;;;;;;;5010975;28;20192;-41
2023/01/03 01:53:21;;;;;;;13.70;7.50;;;;;;;;;;5007421;28;20662;-44
2023/01/03 01:55:55;;;;;;;12.38;6.13;;;;;;;;;;5013610;28;20255;-46
2023/01/03 01:58:23;;;;;;;12.13;6.97;;;;;;;;;;5014678;28;20227;-42
2023/01/03 02:00:49;;;;;;;9.07;6.95;;;;;;;;;;5014163;28;20180;-43
2023/01/03 02:03:15;;;;;;;15.20;7.68;;;;;;;;;;5011328;28;20183;-42
2023/01/03 02:05:42;;;;;;;9.30;6.50;;;;;;;;;;5014249;28;20267;-42
2023/01/03 02:08:08;;;;;;;14.82;6.65;;;;;;;;;;5010085;28;21216;-42
2023/01/03 02:10:40;;;;;;;11.03;7.17;;;;;;;;;;5014231;28;20204;-42
2023/01/03 02:13:27;;;;;;;10.48;6.63;;;;;;;;;;5014255;28;20463;-41
2023/01/03 02:15:56;;;;;;;12.20;6.93;;;;;;;;;;4995756;28;20653;-41
2023/01/03 02:18:40;;;;;;;11.75;6.78;;;;;;;;;;5010872;28;20635;-41
2023/01/03 02:21:09;;;;;;;12.55;6.45;;;;;;;;;;5007966;28;20175;-44
2023/01/03 02:23:51;;;;;;;13.52;6.68;;;;;;;;;;5013796;28;20165;-43
2023/01/03 02:26:29;;;;;;;11.55;6.43;;;;;;;;;;5008982;28;20648;-43
2023/01/03 02:29:10;;;;;;;7.93;5.93;;;;;;;;;;5006406;28;20555;-42
2023/01/03 02:31:55;;;;;;;11.93;5.93;;;;;;;;;;5011693;28;20220;-42
2023/01/03 02:34:21;;;;;;;10.57;7.50;;;;;;;;;;5009797;28;20180;-41
2023/01/03 02:36:52;;;;;;;9.43;5.83;;;;;;;;;;5013634;28;20355;-42
2023/01/03 02:39:25;;;;;;;21.20;6.70;;;;;;;;;;5006433;28;20415;-42
2023/01/03 02:41:51;;;;;;;9.43;6.00;;;;;;;;;;5013969;28;20173;-41
2023/01/03 02:44:20;;;;;;;10.23;6.10;;;;;;;;;;5011323;28;20239;-42
2023/01/03 02:46:51;;;;;;;11.82;6.63;;;;;;;;;;5013365;28;20482;-42
2023/01/03 02:49:26;;;;;;;10.90;6.85;;;;;;;;;;5009653;28;20196;-42
2023/01/03 02:51:58;;;;;;;7.72;6.00;;;;;;;;;;5013451;28;20216;-41
2023/01/03 02:54:30;;;;;;;9.05;5.82;;;;;;;;;;5013674;28;20664;-42
2023/01/03 02:57:02;;;;;;;8.53;6.83;;;;;;;;;;4997201;28;20172;-42
2023/01/03 02:59:32;;;;;;;12.38;6.22;;;;;;;;;;5011010;28;20970;-42
2023/01/03 03:01:59;;;;;;;15.48;6.57;;;;;;;;;;5010322;28;20242;-42
2023/01/03 03:04:26;;;;;;;16.00;6.00;;;;;;;;;;5000042;28;20192;-44
2023/01/03 03:06:58;;;;;;;8.00;5.68;;;;;;;;;;4996133;28;20247;-42
2023/01/03 03:09:24;;;;;;;11.30;6.57;;;;;;;;;;5004856;28;20177;-44
2023/01/03 03:14:38;;;;;;;15.77;8.27;;;;;;;;;;5013748;28;20406;-42
2023/01/03 03:17:09;;;;;;;15.53;9.50;;;;;;;;;;5010486;28;20194;-42
2023/01/03 03:25:11;;;;;;;17.50;10.02;;;;;;;;;;5013269;28;20671;-43
2023/01/03 03:30:24;;;;;;;16.03;8.90;;;;;;;;;;5012864;28;20195;-42
2023/01/03 03:32:51;;;;;;;21.30;9.80;;;;;;;;;;5007099;28;20549;-42
2023/01/03 03:35:20;;;;;;;12.13;8.65;;;;;;;;;;5012806;28;20184;-42
2023/01/03 03:37:46;;;;;;;15.75;9.85;;;;;;;;;;5012351;28;20287;-41
2023/01/03 03:45:51;;;;;;;17.90;8.80;;;;;;;;;;5012826;28;20264;-42
2023/01/03 03:48:17;;;;;;;17.05;8.55;;;;;;;;;;5006918;28;20236;-42
2023/01/03 03:50:46;;;;;;;21.17;8.60;;;;;;;;;;5010299;28;21181;-44
2023/01/03 03:53:13;;;;;;;13.45;10.43;;;;;;;;;;5012716;28;20502;-41
2023/01/03 03:55:43;;;;;;;19.55;11.10;;;;;;;;;;5012568;28;20180;-43
2023/01/03 03:58:18;;;;;;;19.40;12.55;;;;;;;;;;5008483;28;20507;-42
2023/01/03 04:00:45;;;;;;;17.00;12.30;;;;;;;;;;5012456;28;20191;-42
2023/01/03 04:03:12;;;;;;;23.55;14.18;;;;;;;;;;5012476;28;20172;-42
2023/01/03 04:05:40;;;;;;;22.23;13.48;;;;;;;;;;5012508;28;20180;-42
2023/01/03 04:08:06;;;;;;;22.30;13.13;;;;;;;;;;5009835;28;20222;-42
2023/01/03 04:10:32;;;;;;;25.87;15.40;;;;;;;;;;5012155;28;20176;-42
2023/01/03 04:12:57;;;;;;;17.33;12.10;;;;;;;;;;5011050;28;20816;-41
2023/01/03 04:15:23;;;;;;;20.53;12.40;;;;;;;;;;5008284;28;20465;-42
2023/01/03 04:17:49;;;;;;;21.50;13.37;;;;;;;;;;5011717;28;20423;-42
2023/01/03 04:20:15;;;;;;;17.00;10.90;;;;;;;;;;5012053;28;20486;-42
2023/01/03 04:22:41;;;;;;;17.17;11.48;;;;;;;;;;5011882;28;20412;-42
2023/01/03 04:25:08;;;;;;;20.30;12.53;;;;;;;;;;5008347;28;20223;-42
2023/01/03 04:27:34;;;;;;;22.30;11.55;;;;;;;;;;5006251;28;20514;-42
2023/01/03 04:30:00;;;;;;;19.80;10.10;;;;;;;;;;5011994;28;20255;-42
2023/01/03 04:32:26;;;;;;;15.32;10.98;;;;;;;;;;5011944;28;20475;-42
2023/01/03 04:34:52;;;;;;;17.33;10.77;;;;;;;;;;5011639;28;20215;-44
2023/01/03 04:37:18;;;;;;;16.97;10.77;;;;;;;;;;5009633;28;20427;-42
2023/01/03 04:39:44;;;;;;;14.53;9.97;;;;;;;;;;5011901;28;21019;-42
2023/01/03 04:44:54;;;;;;;16.05;10.80;;;;;;;;;;4996995;28;20426;-44
2023/01/03 04:47:20;;;;;;;19.40;10.20;;;;;;;;;;5011063;28;20209;-43
2023/01/03 04:49:47;;;;;;;14.00;10.57;;;;;;;;;;5011566;28;20462;-42
2023/01/03 04:52:14;;;;;;;19.10;10.93;;;;;;;;;;5010169;28;20470;-42
2023/01/03 04:54:40;;;;;;;17.37;10.60;;;;;;;;;;5010018;28;20199;-42
2023/01/03 04:57:06;;;;;;;14.33;10.07;;;;;;;;;;5011317;28;20924;-42
2023/01/03 04:59:32;;;;;;;13.07;9.97;;;;;;;;;;5004758;28;20415;-41
2023/01/03 05:01:58;;;;;;;16.87;10.23;;;;;;;;;;5011153;28;20421;-42
2023/01/03 05:04:24;;;;;;;19.73;10.80;;;;;;;;;;5011743;28;20415;-42
2023/01/03 05:06:53;;;;;;;12.73;8.63;;;;;;;;;;5012209;28;20427;-43
2023/01/03 05:09:19;;;;;;;14.43;8.75;;;;;;;;;;5004561;28;20485;-44
2023/01/03 05:11:45;;;;;;;20.10;9.37;;;;;;;;;;5011266;28;20667;-44
2023/01/03 05:14:13;;;;;;;14.23;9.47;;;;;;;;;;5009500;28;20404;-44
2023/01/03 05:16:39;;;;;;;13.43;9.00;;;;;;;;;;5011017;28;20518;-44
2023/01/03 05:19:05;;;;;;;11.85;8.75;;;;;;;;;;5009280;28;20424;-44
2023/01/03 05:27:01;;;;;;;12.43;8.05;;;;;;;;;;5011050;28;20216;-43
2023/01/03 05:29:27;;;;;;;14.63;8.10;;;;;;;;;;5013882;28;20215;-43
2023/01/03 05:31:54;;;;;;;10.52;7.75;;;;;;;;;;5010620;28;20613;-43
2023/01/03 05:34:20;;;;;;;11.45;8.23;;;;;;;;;;5009912;28;20243;-43
2023/01/03 05:36:46;;;;;;;10.87;7.03;;;;;;;;;;5014798;28;20169;-44
2023/01/03 05:39:12;;;;;;;14.35;8.10;;;;;;;;;;5015009;28;20482;-44
2023/01/03 05:44:22;;;;;;;17.23;9.10;;;;;;;;;;5015143;28;20461;-43
2023/01/03 05:46:48;;;;;;;16.40;8.43;;;;;;;;;;5014666;28;20409;-43
2023/01/03 05:49:14;;;;;;;11.07;7.47;;;;;;;;;;5009416;28;20220;-43
2023/01/03 05:51:40;;;;;;;19.30;7.90;;;;;;;;;;5007919;28;20494;-44
2023/01/03 05:54:06;;;;;;;17.33;8.77;;;;;;;;;;5015244;28;20758;-43
2023/01/03 05:56:32;;;;;;;13.27;7.65;;;;;;;;;;5017193;28;20411;-43
2023/01/03 05:58:58;;;;;;;14.73;8.20;;;;;;;;;;5014579;28;20242;-43
2023/01/03 06:01:25;;;;;;;12.88;7.65;;;;;;;;;;5014105;28;20804;-43
2023/01/03 06:03:51;;;;;;;12.85;6.97;;;;;;;;;;5014042;28;20172;-44
2023/01/03 06:06:17;;;;;;;9.85;6.80;;;;;;;;;;5013489;28;20168;-43
2023/01/03 06:08:43;;;;;;;11.02;7.03;;;;;;;;;;5013712;28;20275;-43
2023/01/03 06:11:13;;;;;;;15.98;8.07;;;;;;;;;;5012016;28;20180;-43
2023/01/03 06:13:39;;;;;;;13.60;7.70;;;;;;;;;;5010570;28;20180;-43
2023/01/03 06:18:52;;;;;;;9.85;6.35;;;;;;;;;;5007583;28;20223;-43
2023/01/03 06:21:18;;;;;;;11.10;7.37;;;;;;;;;;5014064;28;20636;-43
2023/01/03 06:23:46;;;;;;;11.65;6.38;;;;;;;;;;5014313;28;20806;-43
2023/01/03 06:26:12;;;;;;;12.20;7.22;;;;;;;;;;5012964;28;20740;-43
2023/01/03 06:28:38;;;;;;;16.67;7.87;;;;;;;;;;5012385;28;20197;-43
2023/01/03 06:31:04;;;;;;;19.30;8.37;;;;;;;;;;5014122;28;20494;-43
2023/01/03 06:33:30;;;;;;;13.88;7.40;;;;;;;;;;5007269;28;20434;-43
2023/01/03 06:35:56;;;;;;;10.20;6.90;;;;;;;;;;5013695;28;20540;-43
2023/01/03 06:38:24;;;;;;;11.33;7.30;;;;;;;;;;5013955;28;20439;-43
2023/01/03 06:40:50;;;;;;;11.55;6.43;;;;;;;;;;5009325;28;20495;-43
2023/01/03 06:43:16;;;;;;;13.47;8.13;;;;;;;;;;5014025;28;20263;-44
2023/01/03 06:54:01;;;;;;;12.20;6.20;;;;;;;;;;5014516;28;20321;-43
2023/01/03 06:56:27;;;;;;;9.07;5.80;;;;;;;;;;5013459;28;20223;-43
2023/01/03 06:58:53;;;;;;;13.03;6.47;;;;;;;;;;5008582;28;20807;-44
2023/01/03 07:01:19;;;;;;;8.45;5.95;;;;;;;;;;5013803;28;20518;-43
2023/01/03 07:03:45;;;;;;;10.88;6.57;;;;;;;;;;5013470;28;20168;-44
2023/01/03 07:06:11;;;;;;;7.97;5.50;;;;;;;;;;5013341;28;20548;-44
2023/01/03 07:08:37;;;;;;;7.70;5.70;;;;;;;;;;5010144;28;20483;-44
2023/01/03 07:11:03;;;;;;;17.93;5.67;;;;;;;;;;5013269;28;20427;-43
2023/01/03 07:16:14;;;;;;;10.82;6.28;;;;;;;;;;5007822;28;20454;-42
2023/01/03 07:18:40;;;;;;;7.30;5.43;;;;;;;;;;5013134;28;20228;-43
2023/01/03 07:21:06;;;;;;;10.57;5.40;;;;;;;;;;5011579;28;20452;-43
2023/01/03 07:23:32;;;;;;;9.30;6.15;;;;;;;;;;5013019;28;20465;-43
2023/01/03 07:25:58;;;;;;;8.77;5.63;;;;;;;;;;5008280;28;20594;-44
2023/01/03 07:28:24;;;;;;;7.45;5.68;;;;;;;;;;5013016;28;20198;-43
2023/01/03 07:30:50;;;;;;;13.03;5.30;;;;;;;;;;5010517;28;20618;-43
2023/01/03 07:33:17;;;;;;;10.50;5.27;;;;;;;;;;5012717;28;20695;-43
2023/01/03 07:35:43;;;;;;;13.00;5.95;;;;;;;;;;5011543;28;20911;-44
2023/01/03 07:38:11;;;;;;;10.40;5.30;;;;;;;;;;5009281;28;20200;-43
2023/01/03 07:40:37;;;;;;;11.50;6.25;;;;;;;;;;5013047;28;20438;-43
2023/01/03 07:45:48;;;;;;;7.43;4.60;;;;;;;;;;5012838;28;20461;-43
2023/01/03 07:48:14;;;;;;;7.87;5.20;;;;;;;;;;5012537;28;20205;-44
2023/01/03 07:50:40;;;;;;;9.30;4.85;;;;;;;;;;5011633;28;20428;-43
2023/01/03 07:53:07;;;;;;;9.05;5.95;;;;;;;;;;5012262;28;20688;-43
2023/01/03 07:55:33;;;;;;;7.60;4.90;;;;;;;;;;5012503;28;20222;-43
2023/01/03 07:58:00;;;;;;;10.18;4.85;;;;;;;;;;5012294;28;20992;-43
2023/01/03 08:00:26;;;;;;;4.53;3.93;;;;;;;;;;5004271;28;20216;-43
2023/01/03 08:02:53;;;;;;;5.30;3.80;;;;;;;;;;5010901;28;20409;-43
2023/01/03 08:05:19;;;;;;;6.60;4.60;;;;;;;;;;5012226;28;20559;-43
2023/01/03 08:07:46;;;;;;;17.77;5.20;;;;;;;;;;5007149;28;20441;-43
2023/01/03 08:15:43;;;;;;;6.80;4.17;;;;;;;;;;5011934;28;20559;-43
2023/01/03 08:18:10;;;;;;;11.50;5.93;;;;;;;;;;5011361;28;20427;-43
2023/01/03 08:20:36;;;;;;;7.80;4.87;;;;;;;;;;5009749;28;20412;-43
2023/01/03 08:23:02;;;;;;;5.70;4.57;;;;;;;;;;5012036;28;20455;-43
2023/01/03 08:25:28;;;;;;;8.47;5.67;;;;;;;;;;5005645;28;20550;-43
2023/01/03 08:27:57;;;;;;;6.30;4.13;;;;;;;;;;5003427;28;20423;-43
2023/01/03 08:30:23;;;;;;;6.13;4.50;;;;;;;;;;5011482;28;20422;-44
2023/01/03 08:32:49;;;;;;;9.90;4.70;;;;;;;;;;5008697;28;20590;-43
2023/01/03 08:35:16;;;;;;;7.47;4.90;;;;;;;;;;5011801;28;20894;-43
2023/01/03 08:37:43;;;;;;;11.70;5.13;;;;;;;;;;5011684;28;20423;-43
2023/01/03 08:40:10;;;;;;;5.40;4.67;;;;;;;;;;5005815;28;20446;-43
2023/01/03 08:42:36;;;;;;;5.40;4.07;;;;;;;;;;5003923;28;20756;-43
2023/01/03 08:45:05;;;;;;;7.03;4.20;;;;;;;;;;5010284;28;20779;-43
2023/01/03 08:47:31;;;;;;;5.00;3.97;;;;;;;;;;5011459;28;20427;-43
2023/01/03 08:49:58;;;;;;;10.33;3.97;;;;;;;;;;5011601;28;20435;-43
2023/01/03 08:52:24;;;;;;;8.60;3.90;;;;;;;;;;5006233;28;21018;-43
2023/01/03 08:54:50;;;;;;;4.10;3.80;;;;;;;;;;5011212;28;20455;-43
2023/01/03 08:57:16;;;;;;;3.80;3.50;;;;;;;;;;5011420;28;20533;-43
2023/01/03 08:59:42;;;;;;;3.60;3.30;;;;;;;;;;5010944;28;20422;-43
2023/01/03 09:02:08;;;;;;;4.17;3.20;;;;;;;;;;5007911;28;20456;-43
2023/01/03 09:04:34;;;;;;;6.00;3.40;;;;;;;;;;5014580;28;20917;-43
2023/01/03 09:07:00;;;;;;;6.33;3.67;;;;;;;;;;5009271;28;20428;-43
2023/01/03 09:09:26;;;;;;;4.83;3.30;;;;;;;;;;5015691;28;20409;-44
2023/01/03 09:11:52;;;;;;;4.50;4.10;;;;;;;;;;5015527;28;20457;-44
2023/01/03 09:14:18;;;;;;;5.13;3.40;;;;;;;;;;5013600;28;20456;-43
2023/01/03 09:16:44;;;;;;;5.83;3.30;;;;;;;;;;4995767;28;20414;-43
2023/01/03 09:19:10;;;;;;;4.57;4.00;;;;;;;;;;4995804;28;20431;-43
2023/01/03 09:21:36;;;;;;;4.13;3.43;;;;;;;;;;4995875;28;20412;-43
2023/01/03 09:24:02;;;;;;;3.07;2.77;;;;;;;;;;4995670;28;20810;-43
2023/01/03 09:26:29;;;;;;;5.10;2.90;;;;;;;;;;4995689;28;20756;-43
2023/01/03 09:28:55;;;;;;;3.57;3.27;;;;;;;;;;4995246;28;20455;-44
2023/01/03 09:31:21;;;;;;;4.70;2.80;;;;;;;;;;4995245;28;20416;-43
2023/01/03 09:33:47;;;;;;;4.30;2.80;;;;;;;;;;4995530;28;20400;-43
2023/01/03 09:36:13;;;;;;;6.57;2.63;;;;;;;;;;4995886;28;20400;-43
2023/01/03 09:38:39;;;;;;;3.03;2.83;;;;;;;;;;4995139;28;20443;-43
2023/01/03 09:41:06;;;;;;;3.30;3.00;;;;;;;;;;4995532;28;20767;-43
2023/01/03 09:43:39;;;;;;;4.90;2.83;;;;;;;;;;4995368;28;20492;-44
2023/01/03 09:46:06;;;;;;;2.37;2.17;;;;;;;;;;4995254;28;20415;-43
2023/01/03 09:48:36;;;;;;;4.77;3.50;;;;;;;;;;4998172;28;20449;-43
2023/01/03 09:51:03;;;;;;;4.77;2.80;;;;;;;;;;5014558;28;20915;-43
2023/01/03 10:05:10;;;;;;;7.33;2.80;;;;;;;;;;5014741;28;20429;-43
2023/01/03 10:07:48;;;;;;;2.93;2.70;;;;;;;;;;5014129;28;20443;-43
2023/01/03 10:10:14;;;;;;;3.83;2.43;;;;;;;;;;5014493;28;20411;-43
2023/01/03 10:12:40;;;;;;;2.40;2.20;;;;;;;;;;5014400;28;20467;-43
2023/01/03 10:15:09;;;;;;;2.30;2.10;;;;;;;;;;5014193;28;20423;-43
2023/01/03 10:17:54;;;;;;;4.30;2.00;;;;;;;;;;5014107;28;20489;-43
2023/01/03 10:20:38;;;;;;;4.57;2.43;;;;;;;;;;5014068;28;20423;-44
2023/01/03 10:23:05;;;;;;;2.33;2.13;;;;;;;;;;5014434;28;20504;-43
2023/01/03 10:25:31;;;;;;;4.80;1.93;;;;;;;;;;5014199;28;20481;-44
2023/01/03 10:28:02;;;;;;;2.20;2.00;;;;;;;;;;5013987;28;21013;-43
2023/01/03 10:30:45;;;;;;;2.30;2.10;;;;;;;;;;5013841;28;20503;-44
2023/01/03 10:33:23;;;;;;;2.47;2.27;;;;;;;;;;5014025;28;20502;-43
2023/01/03 10:35:50;;;;;;;2.83;2.50;;;;;;;;;;5014250;28;20411;-43
2023/01/03 10:38:17;;;;;;;8.53;2.40;;;;;;;;;;5014162;28;20848;-43
2023/01/03 10:40:45;;;;;;;3.83;2.50;;;;;;;;;;5014000;28;20458;-43
2023/01/03 10:43:17;;;;;;;3.10;2.40;;;;;;;;;;5013671;28;20419;-43
2023/01/03 10:45:53;;;;;;;5.13;2.60;;;;;;;;;;5013848;28;20427;-43
2023/01/03 10:48:19;;;;;;;2.90;2.60;;;;;;;;;;5013714;28;20434;-43
2023/01/03 10:50:46;;;;;;;2.50;2.30;;;;;;;;;;5011508;28;20526;-44
2023/01/03 10:53:13;;;;;;;4.53;2.27;;;;;;;;;;5014438;28;20458;-45
2023/01/03 10:55:47;;;;;;;2.50;2.30;;;;;;;;;;5014372;28;20866;-45
2023/01/03 10:58:27;;;;;;;2.20;2.00;;;;;;;;;;5014282;28;20430;-46
2023/01/03 11:00:54;;;;;;;5.30;1.90;;;;;;;;;;4994117;28;20558;-46
2023/01/03 11:03:22;;;;;;;2.37;2.17;;;;;;;;;;5009946;28;20495;-44
2023/01/03 11:06:08;;;;;;;5.40;1.93;;;;;;;;;;4995733;28;20450;-45
2023/01/03 11:08:43;;;;;;;3.60;2.10;;;;;;;;;;5011863;28;20507;-46
2023/01/03 11:11:25;;;;;;;3.97;2.10;;;;;;;;;;5013755;28;20412;-45
2023/01/03 11:13:51;;;;;;;4.33;2.50;;;;;;;;;;4997766;28;20419;-45
2023/01/03 11:16:18;;;;;;;2.13;1.90;;;;;;;;;;4993488;28;20464;-45
2023/01/03 11:18:58;;;;;;;6.00;2.17;;;;;;;;;;5006012;28;20444;-46
2023/01/03 11:21:39;;;;;;;3.07;2.03;;;;;;;;;;5014075;28;20477;-45
2023/01/03 11:24:08;;;;;;;2.93;2.17;;;;;;;;;;5014577;28;20412;-46
2023/01/03 11:26:37;;;;;;;3.20;1.90;;;;;;;;;;5013137;28;20906;-43
2023/01/03 11:29:06;;;;;;;2.97;2.67;;;;;;;;;;5014138;28;21071;-45
2023/01/03 11:31:39;;;;;;;4.60;2.53;;;;;;;;;;5014013;28;20402;-46
2023/01/03 11:34:23;;;;;;;3.87;2.30;;;;;;;;;;5013727;28;20400;-45
2023/01/03 11:37:08;;;;;;;4.47;2.57;;;;;;;;;;5013180;28;20469;-45
2023/01/03 11:39:53;;;;;;;4.90;2.30;;;;;;;;;;5011484;28;20408;-47
2023/01/03 11:42:30;;;;;;;2.00;1.90;;;;;;;;;;5008855;28;20457;-45
2023/01/03 11:45:06;;;;;;;6.53;2.67;;;;;;;;;;5012955;28;20410;-47
2023/01/03 11:47:42;;;;;;;2.77;2.13;;;;;;;;;;5009216;28;20443;-45
2023/01/03 11:50:18;;;;;;;7.87;3.33;;;;;;;;;;5000047;28;20435;-45
2023/01/03 11:52:47;;;;;;;5.73;2.67;;;;;;;;;;5025193;28;20540;-44
2023/01/03 11:55:32;;;;;;;5.77;2.47;;;;;;;;;;5007327;28;20412;-46
2023/01/03 11:58:04;;;;;;;3.83;2.30;;;;;;;;;;5003385;28;20423;-45
2023/01/03 12:00:49;;;;;;;2.07;1.97;;;;;;;;;;5012016;28;20440;-45
2023/01/03 12:03:15;;;;;;;3.13;2.50;;;;;;;;;;5012718;28;20429;-46
2023/01/03 12:05:41;;;;;;;2.20;2.10;;;;;;;;;;5009866;28;20419;-46
2023/01/03 12:08:15;;;;;;;2.93;2.23;;;;;;;;;;5009673;28;20523;-45
2023/01/03 12:10:56;;;;;;;4.30;2.53;;;;;;;;;;5010973;28;20414;-45
2023/01/03 12:13:41;;;;;;;4.30;2.27;;;;;;;;;;5013189;28;20870;-45
2023/01/03 12:16:09;;;;;;;4.50;2.60;;;;;;;;;;5012706;28;20845;-46
2023/01/03 12:18:54;;;;;;;5.00;2.53;;;;;;;;;;5012556;28;20506;-46
2023/01/03 12:21:26;;;;;;;5.90;2.10;;;;;;;;;;5012861;28;20411;-44
2023/01/03 12:23:52;;;;;;;2.40;2.20;;;;;;;;;;5007879;28;20407;-44
2023/01/03 12:26:21;;;;;;;2.20;2.10;;;;;;;;;;5012674;28;20403;-46
2023/01/03 12:28:50;;;;;;;3.30;2.23;;;;;;;;;;5012631;28;20424;-46
2023/01/03 12:31:28;;;;;;;4.10;2.30;;;;;;;;;;5012312;28;20418;-43
2023/01/03 12:34:14;;;;;;;4.20;2.90;;;;;;;;;;5011918;28;20415;-42
2023/01/03 12:36:48;;;;;;;4.40;2.53;;;;;;;;;;5006547;28;20408;-42
2023/01/03 12:39:32;;;;;;;2.57;2.37;;;;;;;;;;5011808;28;20423;-44
2023/01/03 12:42:07;;;;;;;4.33;2.57;;;;;;;;;;5003883;28;20409;-43
2023/01/03 12:44:35;;;;;;;3.27;2.40;;;;;;;;;;5011920;28;20616;-43
2023/01/03 12:47:02;;;;;;;2.70;2.50;;;;;;;;;;5011481;28;20460;-44
2023/01/03 12:49:31;;;;;;;4.83;2.50;;;;;;;;;;5008144;28;20438;-43
2023/01/03 12:51:58;;;;;;;4.17;2.50;;;;;;;;;;5009250;28;20838;-44
2023/01/03 12:54:37;;;;;;;3.90;2.60;;;;;;;;;;5009261;28;20407;-43
2023/01/03 12:57:05;;;;;;;6.60;2.73;;;;;;;;;;5005126;28;20420;-45
2023/01/03 12:59:51;;;;;;;4.00;2.33;;;;;;;;;;5009439;28;20416;-43
2023/01/03 13:02:20;;;;;;;4.23;2.50;;;;;;;;;;5011980;28;20453;-44
2023/01/03 13:04:48;;;;;;;6.13;2.40;;;;;;;;;;5006438;28;20420;-43
2023/01/03 13:07:17;;;;;;;2.90;1.97;;;;;;;;;;5011378;28;20498;-44
2023/01/03 13:09:44;;;;;;;3.10;2.80;;;;;;;;;;5011465;28;20467;-44
2023/01/03 13:12:15;;;;;;;6.30;2.07;;;;;;;;;;5011620;28;20488;-44
2023/01/03 13:14:51;;;;;;;2.07;1.87;;;;;;;;;;5009792;28;20405;-43
2023/01/03 13:17:18;;;;;;;5.53;2.17;;;;;;;;;;5007370;28;20436;-43
2023/01/03 13:19:51;;;;;;;10.80;2.17;;;;;;;;;;5011341;28;20415;-43
2023/01/03 13:22:34;;;;;;;3.13;1.80;;;;;;;;;;5004455;28;20426;-43
2023/01/03 13:25:19;;;;;;;2.60;1.50;;;;;;;;;;5004702;28;20491;-43
2023/01/03 13:27:49;;;;;;;2.50;1.60;;;;;;;;;;5009068;28;20457;-44
2023/01/03 13:30:20;;;;;;;1.77;1.23;;;;;;;;;;5011434;28;20428;-43
2023/01/03 13:32:52;;;;;;;2.97;1.60;;;;;;;;;;5006118;28;20567;-43
2023/01/03 13:35:28;;;;;;;5.23;1.90;;;;;;;;;;5011389;28;20487;-43
2023/01/03 13:37:55;;;;;;;1.90;1.80;;;;;;;;;;5002562;28;20423;-44
2023/01/03 13:40:27;;;;;;;4.20;1.20;;;;;;;;;;5011151;28;20412;-43
2023/01/03 13:43:08;;;;;;;4.17;1.60;;;;;;;;;;4993997;28;20478;-43
2023/01/03 13:48:20;;;;;;;2.13;1.50;;;;;;;;;;5602929;22;20500;-43
2023/01/03 13:51:06;;;;;;;4.50;1.67;;;;;;;;;;4993050;28;20877;-42
2023/01/03 13:53:36;;;;;;;7.23;1.73;;;;;;;;;;4993342;28;20486;-46
2023/01/03 13:56:15;;;;;;;7.03;1.73;;;;;;;;;;4974010;28;20422;-42
2023/01/03 13:58:43;;;;;;;1.70;1.30;;;;;;;;;;5003703;28;20440;-42
2023/01/03 14:01:31;;;;;;;2.07;1.87;;;;;;;;;;5012963;28;20435;-42
2023/01/03 14:03:57;;;;;;;3.70;2.07;;;;;;;;;;5007054;28;20447;-42
2023/01/03 14:06:47;;;;;;;2.70;1.40;;;;;;;;;;5014141;28;20432;-43
2023/01/03 14:09:37;;;;;;;2.57;1.57;;;;;;;;;;5011010;28;20841;-43
2023/01/03 14:12:24;;;;;;;4.70;2.63;;;;;;;;;;5014301;28;20466;-43
2023/01/03 14:14:54;;;;;;;5.23;1.43;;;;;;;;;;5014579;28;20426;-42
2023/01/03 14:17:24;;;;;;;6.10;1.40;;;;;;;;;;5014188;28;20415;-42
2023/01/03 14:19:51;;;;;;;6.03;2.03;;;;;;;;;;5013913;28;20408;-43
2023/01/03 14:22:20;;;;;;;7.07;1.60;;;;;;;;;;5011578;28;20973;-46
2023/01/03 14:24:50;;;;;;;4.00;1.70;;;;;;;;;;5013403;28;20485;-44
2023/01/03 14:27:17;;;;;;;1.97;1.37;;;;;;;;;;5013173;28;20481;-44
2023/01/03 14:29:47;;;;;;;3.70;1.80;;;;;;;;;;4994135;28;20935;-44
2023/01/03 14:32:18;;;;;;;2.40;1.40;;;;;;;;;;5011768;28;20981;-45
2023/01/03 14:34:44;;;;;;;4.73;1.93;;;;;;;;;;5011152;28;20458;-44
2023/01/03 14:37:25;;;;;;;2.10;1.30;;;;;;;;;;5012457;28;20961;-45
2023/01/03 14:39:52;;;;;;;1.67;1.50;;;;;;;;;;5012401;28;20426;-44
2023/01/03 14:42:18;;;;;;;2.80;1.33;;;;;;;;;;4995911;28;20469;-44
2023/01/03 14:44:49;;;;;;;4.60;1.60;;;;;;;;;;5013945;28;20408;-43
2023/01/03 14:47:16;;;;;;;2.40;1.63;;;;;;;;;;4994290;28;20464;-44
2023/01/03 14:49:45;;;;;;;3.00;1.40;;;;;;;;;;5011311;28;20426;-44
2023/01/03 14:52:28;;;;;;;4.40;1.60;;;;;;;;;;5013837;28;20490;-44
2023/01/03 14:54:55;;;;;;;2.73;2.07;;;;;;;;;;5013491;28;20458;-44
2023/01/03 14:57:24;;;;;;;1.97;1.87;;;;;;;;;;5013385;28;20529;-44
2023/01/03 14:59:51;;;;;;;8.63;1.80;;;;;;;;;;5013862;28;20422;-44
2023/01/03 15:02:18;;;;;;;1.63;1.20;;;;;;;;;;5011543;28;20419;-44
2023/01/03 15:04:48;;;;;;;2.80;1.50;;;;;;;;;;5012080;28;20837;-44
2023/01/03 15:07:27;;;;;;;9.93;1.63;;;;;;;;;;5011400;28;20801;-43
2023/01/03 15:10:07;;;;;;;2.27;1.40;;;;;;;;;;5012797;28;20410;-43
2023/01/03 15:12:34;;;;;;;3.70;1.20;;;;;;;;;;5012837;28;20812;-44
2023/01/03 15:15:16;;;;;;;1.60;1.50;;;;;;;;;;5013279;28;20451;-44
2023/01/03 15:17:43;;;;;;;2.80;1.80;;;;;;;;;;5012876;28;20446;-43
2023/01/03 15:20:09;;;;;;;2.10;1.40;;;;;;;;;;5012972;28;20427;-43
2023/01/03 15:22:40;;;;;;;1.70;1.60;;;;;;;;;;5013710;28;20438;-44
2023/01/03 15:25:15;;;;;;;3.63;1.80;;;;;;;;;;5013267;28;20446;-44
2023/01/03 15:27:43;;;;;;;4.60;2.53;;;;;;;;;;5012892;28;20805;-44
2023/01/03 15:30:16;;;;;;;4.67;1.70;;;;;;;;;;5012869;28;20747;-43
2023/01/03 15:32:57;;;;;;;2.67;1.70;;;;;;;;;;5012842;28;20455;-44
2023/01/03 15:35:35;;;;;;;1.77;1.67;;;;;;;;;;5012998;28;20402;-43
2023/01/03 15:38:02;;;;;;;2.97;1.80;;;;;;;;;;5012444;28;20426;-44
2023/01/03 15:40:29;;;;;;;4.03;1.50;;;;;;;;;;5007411;28;20407;-44
2023/01/03 15:45:40;;;;;;;2.80;1.30;;;;;;;;;;5011563;28;20421;-43
2023/01/03 15:48:07;;;;;;;2.07;1.37;;;;;;;;;;5010813;28;20423;-44
2023/01/03 15:50:39;;;;;;;5.10;1.50;;;;;;;;;;5006975;28;20464;-43
2023/01/03 15:53:05;;;;;;;3.63;1.73;;;;;;;;;;5011020;28;20517;-43
2023/01/03 15:55:31;;;;;;;3.23;1.40;;;;;;;;;;5011303;28;20457;-44
2023/01/03 15:57:57;;;;;;;1.57;1.23;;;;;;;;;;5010725;28;20442;-44